sensor_id;sensor_type;location;lat;lon;timestamp;pressure;altitude;pressure_sealevel;temperature;humidity
55466;BME280;41329;41.594;23.810;2023-02-28T00:02:05;95655.97;;;10.52;66.73
55466;BME280;41329;41.594;23.810;2023-02-28T00:04:30;95645.91;;;10.44;66.36
55466;BME280;41329;41.594;23.810;2023-02-28T00:06:56;95590.72;;;10.13;66.09
55466;BME280;41329;41.594;23.810;2023-02-28T00:09:21;95640.75;;;10.42;66.47
55466;BME280;41329;41.594;23.810;2023-02-28T00:11:46;95622.09;;;10.20;67.01
55466;BME280;41329;41.594;23.810;2023-02-28T00:14:12;95639.72;;;10.31;66.77
55466;BME280;41329;41.594;23.810;2023-02-28T00:16:37;95652.28;;;10.29;66.68
55466;BME280;41329;41.594;23.810;2023-02-28T00:19:03;95636.63;;;10.17;66.78
55466;BME280;41329;41.594;23.810;2023-02-28T00:21:28;95638.63;;;10.17;66.67
55466;BME280;41329;41.594;23.810;2023-02-28T00:23:53;95583.38;;;9.86;66.46
55466;BME280;41329;41.594;23.810;2023-02-28T00:26:19;95640.13;;;10.14;66.84
55466;BME280;41329;41.594;23.810;2023-02-28T00:28:44;95650.22;;;10.07;67.62
55466;BME280;41329;41.594;23.810;2023-02-28T00:31:10;95660.22;;;9.96;68.68
55466;BME280;41329;41.594;23.810;2023-02-28T00:33:35;95652.44;;;10.01;67.91
55466;BME280;41329;41.594;23.810;2023-02-28T00:36:09;95642.91;;;9.99;67.22
55466;BME280;41329;41.594;23.810;2023-02-28T00:38:35;95646.66;;;9.91;66.96
55466;BME280;41329;41.594;23.810;2023-02-28T00:41:01;95642.28;;;9.90;66.91
55466;BME280;41329;41.594;23.810;2023-02-28T00:43:30;95638.13;;;9.80;67.69
55466;BME280;41329;41.594;23.810;2023-02-28T00:45:56;95646.50;;;9.84;68.26
55466;BME280;41329;41.594;23.810;2023-02-28T00:48:21;95621.75;;;9.72;68.66
55466;BME280;41329;41.594;23.810;2023-02-28T00:50:49;95624.22;;;9.77;69.13
55466;BME280;41329;41.594;23.810;2023-02-28T00:53:15;95643.47;;;9.89;69.13
55466;BME280;41329;41.594;23.810;2023-02-28T00:55:40;95644.00;;;9.94;69.17
55466;BME280;41329;41.594;23.810;2023-02-28T00:58:06;95641.28;;;9.98;69.39
55466;BME280;41329;41.594;23.810;2023-02-28T01:00:31;95639.84;;;10.04;70.12
55466;BME280;41329;41.594;23.810;2023-02-28T01:02:56;95643.53;;;10.08;70.27
55466;BME280;41329;41.594;23.810;2023-02-28T01:05:22;95649.94;;;10.12;69.42
55466;BME280;41329;41.594;23.810;2023-02-28T01:07:47;95650.75;;;10.12;69.27
55466;BME280;41329;41.594;23.810;2023-02-28T01:10:13;95655.56;;;10.15;69.03
55466;BME280;41329;41.594;23.810;2023-02-28T01:12:38;95643.69;;;10.15;68.69
55466;BME280;41329;41.594;23.810;2023-02-28T01:15:04;95641.38;;;10.17;68.62
55466;BME280;41329;41.594;23.810;2023-02-28T01:17:30;95639.78;;;10.00;68.26
55466;BME280;41329;41.594;23.810;2023-02-28T01:19:55;95618.41;;;9.82;68.04
55466;BME280;41329;41.594;23.810;2023-02-28T01:22:21;95616.75;;;9.77;68.17
55466;BME280;41329;41.594;23.810;2023-02-28T01:24:47;95593.69;;;9.54;68.62
55466;BME280;41329;41.594;23.810;2023-02-28T01:27:13;95652.66;;;9.77;69.17
55466;BME280;41329;41.594;23.810;2023-02-28T01:29:38;95638.41;;;9.75;69.38
55466;BME280;41329;41.594;23.810;2023-02-28T01:32:03;95644.72;;;9.76;69.32
55466;BME280;41329;41.594;23.810;2023-02-28T01:34:29;95624.78;;;9.51;69.28
55466;BME280;41329;41.594;23.810;2023-02-28T01:36:54;95649.03;;;9.73;69.29
55466;BME280;41329;41.594;23.810;2023-02-28T01:39:20;95659.44;;;9.80;69.08
55466;BME280;41329;41.594;23.810;2023-02-28T01:41:45;95649.44;;;9.75;69.02
55466;BME280;41329;41.594;23.810;2023-02-28T01:47:14;95674.50;;;9.82;68.84
55466;BME280;41329;41.594;23.810;2023-02-28T01:49:40;95676.38;;;9.78;68.73
55466;BME280;41329;41.594;23.810;2023-02-28T01:52:06;95676.81;;;9.80;68.24
55466;BME280;41329;41.594;23.810;2023-02-28T01:54:34;95680.66;;;9.76;67.76
55466;BME280;41329;41.594;23.810;2023-02-28T01:57:09;95681.72;;;9.71;67.47
55466;BME280;41329;41.594;23.810;2023-02-28T01:59:43;95667.66;;;9.61;67.44
55466;BME280;41329;41.594;23.810;2023-02-28T02:02:14;95693.13;;;9.70;67.38
55466;BME280;41329;41.594;23.810;2023-02-28T02:05:08;95687.53;;;9.66;67.64
55466;BME280;41329;41.594;23.810;2023-02-28T02:07:36;95689.03;;;9.64;68.12
55466;BME280;41329;41.594;23.810;2023-02-28T02:21:05;95708.28;;;9.60;69.64
55466;BME280;41329;41.594;23.810;2023-02-28T02:26:55;95715.16;;;9.66;69.67
55466;BME280;41329;41.594;23.810;2023-02-28T02:35:10;95726.19;;;9.66;69.70
55466;BME280;41329;41.594;23.810;2023-02-28T02:37:52;95730.22;;;9.69;70.30
55466;BME280;41329;41.594;23.810;2023-02-28T02:40:23;95723.97;;;9.72;70.56
55466;BME280;41329;41.594;23.810;2023-02-28T02:45:35;95715.88;;;9.79;70.94
55466;BME280;41329;41.594;23.810;2023-02-28T02:48:06;95713.97;;;9.83;70.62
55466;BME280;41329;41.594;23.810;2023-02-28T02:50:55;95714.97;;;9.90;70.80
55466;BME280;41329;41.594;23.810;2023-02-28T02:53:29;95699.03;;;9.84;71.21
55466;BME280;41329;41.594;23.810;2023-02-28T02:55:55;95712.75;;;9.96;71.28
55466;BME280;41329;41.594;23.810;2023-02-28T02:58:28;95691.34;;;9.93;71.06
55466;BME280;41329;41.594;23.810;2023-02-28T03:00:59;95709.22;;;9.99;70.96
55466;BME280;41329;41.594;23.810;2023-02-28T03:03:25;95708.09;;;10.00;71.16
55466;BME280;41329;41.594;23.810;2023-02-28T03:05:59;95711.22;;;9.98;71.29
55466;BME280;41329;41.594;23.810;2023-02-28T03:08:26;95714.69;;;10.11;71.22
55466;BME280;41329;41.594;23.810;2023-02-28T03:10:56;95720.56;;;10.09;71.06
55466;BME280;41329;41.594;23.810;2023-02-28T03:21:45;95734.94;;;10.15;70.99
55466;BME280;41329;41.594;23.810;2023-02-28T03:26:57;95748.41;;;10.16;70.87
55466;BME280;41329;41.594;23.810;2023-02-28T03:29:35;95745.56;;;10.13;70.60
55466;BME280;41329;41.594;23.810;2023-02-28T03:32:27;95746.00;;;10.15;70.55
55466;BME280;41329;41.594;23.810;2023-02-28T03:35:10;95741.56;;;10.10;70.78
55466;BME280;41329;41.594;23.810;2023-02-28T03:37:40;95756.69;;;10.16;71.12
55466;BME280;41329;41.594;23.810;2023-02-28T03:40:20;95740.47;;;10.15;71.13
55466;BME280;41329;41.594;23.810;2023-02-28T03:42:50;95738.78;;;10.10;71.68
55466;BME280;41329;41.594;23.810;2023-02-28T03:45:21;95743.22;;;10.15;71.43
55466;BME280;41329;41.594;23.810;2023-02-28T03:47:50;95757.66;;;10.24;71.61
55466;BME280;41329;41.594;23.810;2023-02-28T03:50:36;95755.81;;;10.12;71.76
55466;BME280;41329;41.594;23.810;2023-02-28T03:55:44;95762.06;;;10.25;71.85
55466;BME280;41329;41.594;23.810;2023-02-28T03:58:21;95759.78;;;10.30;71.78
55466;BME280;41329;41.594;23.810;2023-02-28T04:00:52;95753.91;;;10.32;71.94
55466;BME280;41329;41.594;23.810;2023-02-28T04:03:20;95733.69;;;10.12;71.87
55466;BME280;41329;41.594;23.810;2023-02-28T04:05:50;95758.91;;;10.26;71.74
55466;BME280;41329;41.594;23.810;2023-02-28T04:08:15;95733.25;;;10.10;71.73
55466;BME280;41329;41.594;23.810;2023-02-28T04:10:42;95754.19;;;10.27;71.71
55466;BME280;41329;41.594;23.810;2023-02-28T04:13:10;95756.25;;;10.30;71.52
55466;BME280;41329;41.594;23.810;2023-02-28T04:15:35;95761.53;;;10.19;71.37
55466;BME280;41329;41.594;23.810;2023-02-28T04:18:02;95757.75;;;10.12;71.24
55466;BME280;41329;41.594;23.810;2023-02-28T04:20:27;95751.16;;;10.16;71.23
55466;BME280;41329;41.594;23.810;2023-02-28T04:22:53;95768.81;;;10.27;71.40
55466;BME280;41329;41.594;23.810;2023-02-28T04:25:18;95767.66;;;10.28;71.37
55466;BME280;41329;41.594;23.810;2023-02-28T04:27:44;95779.16;;;10.30;71.43
55466;BME280;41329;41.594;23.810;2023-02-28T04:30:10;95767.59;;;10.25;71.52
55466;BME280;41329;41.594;23.810;2023-02-28T04:32:36;95775.88;;;10.25;71.31
55466;BME280;41329;41.594;23.810;2023-02-28T04:35:01;95774.59;;;10.22;71.24
55466;BME280;41329;41.594;23.810;2023-02-28T04:37:27;95780.78;;;10.16;71.11
55466;BME280;41329;41.594;23.810;2023-02-28T04:39:54;95779.22;;;10.03;70.99
55466;BME280;41329;41.594;23.810;2023-02-28T04:42:20;95779.97;;;10.00;70.79
55466;BME280;41329;41.594;23.810;2023-02-28T04:44:45;95780.06;;;9.88;71.22
55466;BME280;41329;41.594;23.810;2023-02-28T04:47:12;95776.47;;;9.87;71.34
55466;BME280;41329;41.594;23.810;2023-02-28T04:49:37;95773.78;;;9.91;71.57
55466;BME280;41329;41.594;23.810;2023-02-28T04:52:03;95779.78;;;9.93;71.82
55466;BME280;41329;41.594;23.810;2023-02-28T04:54:29;95777.72;;;9.90;71.61
55466;BME280;41329;41.594;23.810;2023-02-28T04:56:55;95785.81;;;9.83;71.90
55466;BME280;41329;41.594;23.810;2023-02-28T04:59:20;95768.47;;;9.82;71.65
55466;BME280;41329;41.594;23.810;2023-02-28T05:01:47;95773.16;;;9.82;71.59
55466;BME280;41329;41.594;23.810;2023-02-28T05:04:13;95773.78;;;9.75;71.31
55466;BME280;41329;41.594;23.810;2023-02-28T05:06:39;95763.00;;;9.55;71.21
55466;BME280;41329;41.594;23.810;2023-02-28T05:09:04;95749.41;;;9.34;71.28
55466;BME280;41329;41.594;23.810;2023-02-28T05:11:32;95780.63;;;9.50;71.23
55466;BME280;41329;41.594;23.810;2023-02-28T05:14:02;95793.81;;;9.57;71.41
55466;BME280;41329;41.594;23.810;2023-02-28T05:16:29;95787.88;;;9.55;71.36
55466;BME280;41329;41.594;23.810;2023-02-28T05:18:54;95788.28;;;9.57;71.58
55466;BME280;41329;41.594;23.810;2023-02-28T05:23:54;95777.25;;;9.57;71.38
55466;BME280;41329;41.594;23.810;2023-02-28T05:26:20;95787.16;;;9.58;71.54
55466;BME280;41329;41.594;23.810;2023-02-28T05:28:46;95793.81;;;9.57;71.74
55466;BME280;41329;41.594;23.810;2023-02-28T05:31:12;95798.09;;;9.54;71.96
55466;BME280;41329;41.594;23.810;2023-02-28T05:33:38;95795.81;;;9.56;72.43
55466;BME280;41329;41.594;23.810;2023-02-28T05:36:04;95783.31;;;9.47;72.62
55466;BME280;41329;41.594;23.810;2023-02-28T05:38:29;95811.81;;;9.51;72.72
55466;BME280;41329;41.594;23.810;2023-02-28T05:40:55;95804.56;;;9.31;73.44
55466;BME280;41329;41.594;23.810;2023-02-28T05:43:21;95816.16;;;9.36;73.73
55466;BME280;41329;41.594;23.810;2023-02-28T05:45:46;95815.16;;;9.29;74.06
55466;BME280;41329;41.594;23.810;2023-02-28T05:48:12;95816.16;;;9.36;74.01
55466;BME280;41329;41.594;23.810;2023-02-28T05:50:37;95829.66;;;9.26;74.05
55466;BME280;41329;41.594;23.810;2023-02-28T05:53:03;95818.50;;;8.95;75.14
55466;BME280;41329;41.594;23.810;2023-02-28T05:55:28;95832.06;;;9.00;75.39
55466;BME280;41329;41.594;23.810;2023-02-28T05:57:54;95821.41;;;9.14;75.08
55466;BME280;41329;41.594;23.810;2023-02-28T06:00:21;95823.22;;;9.22;74.84
55466;BME280;41329;41.594;23.810;2023-02-28T06:02:46;95834.09;;;9.30;74.83
55466;BME280;41329;41.594;23.810;2023-02-28T06:05:17;95839.94;;;9.41;74.82
55466;BME280;41329;41.594;23.810;2023-02-28T06:07:43;95838.19;;;9.48;74.90
55466;BME280;41329;41.594;23.810;2023-02-28T06:10:10;95841.84;;;9.52;74.94
55466;BME280;41329;41.594;23.810;2023-02-28T06:12:36;95845.53;;;9.56;74.86
55466;BME280;41329;41.594;23.810;2023-02-28T06:15:02;95848.94;;;9.65;74.97
55466;BME280;41329;41.594;23.810;2023-02-28T06:17:28;95854.63;;;9.72;74.78
55466;BME280;41329;41.594;23.810;2023-02-28T06:19:53;95839.75;;;9.77;75.12
55466;BME280;41329;41.594;23.810;2023-02-28T06:22:19;95840.31;;;9.82;75.27
55466;BME280;41329;41.594;23.810;2023-02-28T06:24:44;95844.94;;;9.94;75.44
55466;BME280;41329;41.594;23.810;2023-02-28T06:27:09;95846.41;;;10.03;75.36
55466;BME280;41329;41.594;23.810;2023-02-28T06:29:35;95840.00;;;10.15;75.46
55466;BME280;41329;41.594;23.810;2023-02-28T06:32:02;95849.38;;;10.26;75.47
55466;BME280;41329;41.594;23.810;2023-02-28T06:34:28;95847.66;;;10.37;75.50
55466;BME280;41329;41.594;23.810;2023-02-28T06:36:54;95817.38;;;10.25;75.01
55466;BME280;41329;41.594;23.810;2023-02-28T06:39:19;95833.13;;;10.40;74.73
55466;BME280;41329;41.594;23.810;2023-02-28T06:41:45;95824.81;;;10.55;74.87
55466;BME280;41329;41.594;23.810;2023-02-28T06:44:15;95819.44;;;10.62;75.22
55466;BME280;41329;41.594;23.810;2023-02-28T06:46:42;95839.13;;;10.76;74.70
55466;BME280;41329;41.594;23.810;2023-02-28T06:49:09;95842.59;;;10.89;74.64
55466;BME280;41329;41.594;23.810;2023-02-28T06:51:37;95841.25;;;10.98;74.42
55466;BME280;41329;41.594;23.810;2023-02-28T06:54:03;95839.25;;;10.99;74.05
55466;BME280;41329;41.594;23.810;2023-02-28T06:56:28;95840.13;;;11.03;73.35
55466;BME280;41329;41.594;23.810;2023-02-28T06:58:54;95830.66;;;11.04;72.87
55466;BME280;41329;41.594;23.810;2023-02-28T07:01:20;95846.78;;;11.17;72.64
55466;BME280;41329;41.594;23.810;2023-02-28T07:03:48;95852.63;;;11.12;72.25
55466;BME280;41329;41.594;23.810;2023-02-28T07:06:18;95845.75;;;11.06;72.57
55466;BME280;41329;41.594;23.810;2023-02-28T07:08:44;95851.03;;;10.96;72.63
55466;BME280;41329;41.594;23.810;2023-02-28T07:11:09;95839.72;;;11.01;73.07
55466;BME280;41329;41.594;23.810;2023-02-28T07:13:35;95845.38;;;11.08;72.69
55466;BME280;41329;41.594;23.810;2023-02-28T07:16:04;95847.09;;;11.12;72.64
55466;BME280;41329;41.594;23.810;2023-02-28T07:18:30;95848.59;;;11.10;72.49
55466;BME280;41329;41.594;23.810;2023-02-28T07:20:56;95847.31;;;11.23;72.76
55466;BME280;41329;41.594;23.810;2023-02-28T07:23:22;95840.31;;;11.29;72.35
55466;BME280;41329;41.594;23.810;2023-02-28T07:25:48;95850.00;;;11.38;72.17
55466;BME280;41329;41.594;23.810;2023-02-28T07:28:14;95830.25;;;11.40;72.14
55466;BME280;41329;41.594;23.810;2023-02-28T07:30:40;95833.44;;;11.42;72.09
55466;BME280;41329;41.594;23.810;2023-02-28T07:33:06;95859.84;;;11.55;71.90
55466;BME280;41329;41.594;23.810;2023-02-28T07:35:32;95857.63;;;11.60;71.71
55466;BME280;41329;41.594;23.810;2023-02-28T07:37:58;95857.16;;;11.58;71.86
55466;BME280;41329;41.594;23.810;2023-02-28T07:40:24;95860.72;;;11.59;71.48
55466;BME280;41329;41.594;23.810;2023-02-28T07:42:50;95859.47;;;11.56;71.11
55466;BME280;41329;41.594;23.810;2023-02-28T07:45:16;95862.91;;;11.50;71.22
55466;BME280;41329;41.594;23.810;2023-02-28T07:47:42;95864.81;;;11.46;71.41
55466;BME280;41329;41.594;23.810;2023-02-28T07:50:11;95866.19;;;11.55;71.46
55466;BME280;41329;41.594;23.810;2023-02-28T07:52:37;95859.41;;;11.53;71.41
55466;BME280;41329;41.594;23.810;2023-02-28T07:55:10;95857.16;;;11.58;71.84
55466;BME280;41329;41.594;23.810;2023-02-28T07:57:35;95842.72;;;11.68;72.42
55466;BME280;41329;41.594;23.810;2023-02-28T08:00:04;95845.28;;;11.77;72.79
55466;BME280;41329;41.594;23.810;2023-02-28T08:02:34;95854.44;;;12.00;72.55
55466;BME280;41329;41.594;23.810;2023-02-28T08:05:00;95855.44;;;12.11;71.75
55466;BME280;41329;41.594;23.810;2023-02-28T08:07:26;95824.84;;;12.07;71.59
55466;BME280;41329;41.594;23.810;2023-02-28T08:09:51;95840.81;;;12.36;72.07
55466;BME280;41329;41.594;23.810;2023-02-28T08:12:17;95852.19;;;12.51;71.41
55466;BME280;41329;41.594;23.810;2023-02-28T08:14:42;95844.75;;;12.58;70.46
55466;BME280;41329;41.594;23.810;2023-02-28T08:17:09;95851.16;;;12.62;69.77
55466;BME280;41329;41.594;23.810;2023-02-28T08:19:35;95827.06;;;12.43;69.72
55466;BME280;41329;41.594;23.810;2023-02-28T08:22:00;95854.53;;;12.75;70.26
55466;BME280;41329;41.594;23.810;2023-02-28T08:24:26;95834.72;;;12.76;69.33
55466;BME280;41329;41.594;23.810;2023-02-28T08:26:52;95823.91;;;12.68;69.11
55466;BME280;41329;41.594;23.810;2023-02-28T08:29:17;95839.78;;;12.71;69.34
55466;BME280;41329;41.594;23.810;2023-02-28T08:31:43;95825.44;;;12.65;68.97
55466;BME280;41329;41.594;23.810;2023-02-28T08:34:11;95848.06;;;12.93;69.38
55466;BME280;41329;41.594;23.810;2023-02-28T08:36:37;95837.13;;;13.00;69.48
55466;BME280;41329;41.594;23.810;2023-02-28T08:39:03;95842.16;;;13.21;69.47
55466;BME280;41329;41.594;23.810;2023-02-28T08:41:28;95830.97;;;13.14;67.48
55466;BME280;41329;41.594;23.810;2023-02-28T08:43:54;95826.25;;;13.18;67.56
55466;BME280;41329;41.594;23.810;2023-02-28T08:46:19;95839.13;;;13.29;66.14
55466;BME280;41329;41.594;23.810;2023-02-28T08:48:45;95849.19;;;13.41;67.18
55466;BME280;41329;41.594;23.810;2023-02-28T08:51:13;95845.06;;;13.57;66.71
55466;BME280;41329;41.594;23.810;2023-02-28T08:53:39;95848.47;;;13.77;66.70
55466;BME280;41329;41.594;23.810;2023-02-28T08:56:08;95853.56;;;14.08;68.23
55466;BME280;41329;41.594;23.810;2023-02-28T08:58:34;95841.91;;;14.28;66.10
55466;BME280;41329;41.594;23.810;2023-02-28T09:01:00;95833.69;;;14.46;65.73
55466;BME280;41329;41.594;23.810;2023-02-28T09:03:31;95837.38;;;14.57;63.23
55466;BME280;41329;41.594;23.810;2023-02-28T09:05:59;95838.88;;;14.47;63.87
55466;BME280;41329;41.594;23.810;2023-02-28T09:08:27;95830.19;;;14.52;63.77
55466;BME280;41329;41.594;23.810;2023-02-28T09:10:53;95825.06;;;14.61;62.96
55466;BME280;41329;41.594;23.810;2023-02-28T09:13:19;95818.84;;;14.78;64.43
55466;BME280;41329;41.594;23.810;2023-02-28T09:15:45;95818.66;;;15.04;64.43
55466;BME280;41329;41.594;23.810;2023-02-28T09:18:11;95815.50;;;15.13;61.17
55466;BME280;41329;41.594;23.810;2023-02-28T09:20:38;95806.44;;;15.23;61.11
55466;BME280;41329;41.594;23.810;2023-02-28T09:23:06;95808.84;;;15.31;61.05
55466;BME280;41329;41.594;23.810;2023-02-28T09:25:31;95794.16;;;15.34;60.42
55466;BME280;41329;41.594;23.810;2023-02-28T09:27:57;95777.44;;;15.34;60.15
55466;BME280;41329;41.594;23.810;2023-02-28T09:30:22;95785.84;;;15.45;59.90
55466;BME280;41329;41.594;23.810;2023-02-28T09:32:48;95796.22;;;15.55;58.58
55466;BME280;41329;41.594;23.810;2023-02-28T09:35:25;95804.13;;;15.35;58.36
55466;BME280;41329;41.594;23.810;2023-02-28T09:37:52;95792.50;;;15.26;59.01
55466;BME280;41329;41.594;23.810;2023-02-28T09:40:19;95799.75;;;15.41;59.52
55466;BME280;41329;41.594;23.810;2023-02-28T09:42:48;95794.16;;;15.41;59.28
55466;BME280;41329;41.594;23.810;2023-02-28T09:45:36;95779.84;;;15.36;58.69
55466;BME280;41329;41.594;23.810;2023-02-28T09:48:14;95776.59;;;15.34;58.30
55466;BME280;41329;41.594;23.810;2023-02-28T09:50:46;95776.97;;;15.32;58.24
55466;BME280;41329;41.594;23.810;2023-02-28T09:53:21;95779.75;;;15.25;58.54
55466;BME280;41329;41.594;23.810;2023-02-28T09:55:55;95774.25;;;15.36;58.99
55466;BME280;41329;41.594;23.810;2023-02-28T09:58:44;95772.28;;;15.43;58.31
55466;BME280;41329;41.594;23.810;2023-02-28T10:01:20;95766.31;;;15.48;58.30
55466;BME280;41329;41.594;23.810;2023-02-28T10:06:20;95767.22;;;15.70;58.93
55466;BME280;41329;41.594;23.810;2023-02-28T10:11:16;95749.31;;;15.81;58.21
55466;BME280;41329;41.594;23.810;2023-02-28T10:19:18;95737.34;;;15.84;57.80
55466;BME280;41329;41.594;23.810;2023-02-28T10:22:00;95740.53;;;15.79;57.31
55466;BME280;41329;41.594;23.810;2023-02-28T10:24:30;95739.31;;;15.70;57.09
55466;BME280;41329;41.594;23.810;2023-02-28T10:27:13;95735.72;;;15.66;57.69
55466;BME280;41329;41.594;23.810;2023-02-28T10:29:43;95730.91;;;15.66;58.10
55466;BME280;41329;41.594;23.810;2023-02-28T10:32:11;95715.38;;;15.58;58.32
55466;BME280;41329;41.594;23.810;2023-02-28T10:34:39;95717.81;;;15.81;57.89
55466;BME280;41329;41.594;23.810;2023-02-28T10:37:05;95703.03;;;15.73;57.61
55466;BME280;41329;41.594;23.810;2023-02-28T10:42:01;95695.84;;;15.58;58.73
55466;BME280;41329;41.594;23.810;2023-02-28T10:44:27;95694.25;;;15.54;58.78
55466;BME280;41329;41.594;23.810;2023-02-28T10:46:52;95694.66;;;15.63;58.34
55466;BME280;41329;41.594;23.810;2023-02-28T10:49:23;95686.69;;;15.61;57.83
55466;BME280;41329;41.594;23.810;2023-02-28T10:51:54;95684.28;;;15.60;58.02
55466;BME280;41329;41.594;23.810;2023-02-28T10:54:34;95677.94;;;15.59;58.26
55466;BME280;41329;41.594;23.810;2023-02-28T10:57:21;95668.34;;;15.57;57.83
55466;BME280;41329;41.594;23.810;2023-02-28T10:59:53;95681.50;;;15.67;58.39
55466;BME280;41329;41.594;23.810;2023-02-28T11:04:57;95687.50;;;15.76;57.65
55466;BME280;41329;41.594;23.810;2023-02-28T11:07:25;95680.31;;;15.50;58.00
55466;BME280;41329;41.594;23.810;2023-02-28T11:09:52;95666.75;;;15.52;58.33
55466;BME280;41329;41.594;23.810;2023-02-28T11:12:38;95653.59;;;15.53;58.88
55466;BME280;41329;41.594;23.810;2023-02-28T11:15:07;95616.09;;;15.29;58.33
55466;BME280;41329;41.594;23.810;2023-02-28T11:17:43;95667.56;;;15.63;58.49
55466;BME280;41329;41.594;23.810;2023-02-28T11:20:19;95664.31;;;15.37;58.37
55466;BME280;41329;41.594;23.810;2023-02-28T11:22:46;95663.94;;;15.52;58.91
55466;BME280;41329;41.594;23.810;2023-02-28T11:25:36;95654.38;;;15.36;58.74
55466;BME280;41329;41.594;23.810;2023-02-28T11:28:06;95615.59;;;15.03;59.25
55466;BME280;41329;41.594;23.810;2023-02-28T11:30:38;95649.53;;;15.29;59.15
55466;BME280;41329;41.594;23.810;2023-02-28T11:36:08;95606.06;;;15.00;59.60
55466;BME280;41329;41.594;23.810;2023-02-28T11:38:36;95641.94;;;15.23;59.80
55466;BME280;41329;41.594;23.810;2023-02-28T11:44:28;95644.66;;;15.05;60.02
55466;BME280;41329;41.594;23.810;2023-02-28T11:52:52;95631.06;;;14.86;60.61
55466;BME280;41329;41.594;23.810;2023-02-28T11:58:02;95645.78;;;14.83;60.73
55466;BME280;41329;41.594;23.810;2023-02-28T12:03:37;95635.94;;;14.32;61.40
55466;BME280;41329;41.594;23.810;2023-02-28T12:06:23;95645.06;;;14.32;62.30
55466;BME280;41329;41.594;23.810;2023-02-28T12:09:04;95617.63;;;14.27;63.30
55466;BME280;41329;41.594;23.810;2023-02-28T12:11:52;95613.25;;;14.26;64.98
55466;BME280;41329;41.594;23.810;2023-02-28T12:14:46;95635.13;;;14.24;66.62
55466;BME280;41329;41.594;23.810;2023-02-28T12:17:30;95644.66;;;14.27;67.77
55466;BME280;41329;41.594;23.810;2023-02-28T12:20:32;95642.19;;;14.18;68.54
55466;BME280;41329;41.594;23.810;2023-02-28T12:28:39;95654.56;;;13.77;69.18
55466;BME280;41329;41.594;23.810;2023-02-28T12:31:14;95650.38;;;13.54;68.55
55466;BME280;41329;41.594;23.810;2023-02-28T12:33:48;95637.81;;;13.27;69.67
55466;BME280;41329;41.594;23.810;2023-02-28T12:36:18;95656.50;;;13.30;70.61
55466;BME280;41329;41.594;23.810;2023-02-28T12:39:07;95656.31;;;13.12;70.96
55466;BME280;41329;41.594;23.810;2023-02-28T12:41:48;95650.44;;;12.88;72.00
55466;BME280;41329;41.594;23.810;2023-02-28T12:44:49;95656.50;;;12.97;72.33
55466;BME280;41329;41.594;23.810;2023-02-28T12:47:18;95657.59;;;12.89;73.34
55466;BME280;41329;41.594;23.810;2023-02-28T12:49:52;95646.53;;;12.96;72.82
55466;BME280;41329;41.594;23.810;2023-02-28T12:55:40;95649.41;;;12.99;72.32
55466;BME280;41329;41.594;23.810;2023-02-28T12:58:20;95666.69;;;13.19;71.79
55466;BME280;41329;41.594;23.810;2023-02-28T13:04:21;95663.09;;;13.15;71.49
55466;BME280;41329;41.594;23.810;2023-02-28T13:09:32;95659.69;;;13.32;70.80
55466;BME280;41329;41.594;23.810;2023-02-28T13:11:58;95663.31;;;13.36;70.50
55466;BME280;41329;41.594;23.810;2023-02-28T13:14:37;95663.66;;;13.31;70.32
55466;BME280;41329;41.594;23.810;2023-02-28T13:17:11;95645.59;;;13.14;70.33
55466;BME280;41329;41.594;23.810;2023-02-28T13:19:45;95657.50;;;13.11;70.81
55466;BME280;41329;41.594;23.810;2023-02-28T13:24:56;95668.97;;;12.80;71.97
55466;BME280;41329;41.594;23.810;2023-02-28T13:27:39;95666.31;;;12.91;72.13
55466;BME280;41329;41.594;23.810;2023-02-28T13:33:23;95667.50;;;13.19;71.26
55466;BME280;41329;41.594;23.810;2023-02-28T13:36:45;95651.56;;;13.13;70.94
55466;BME280;41329;41.594;23.810;2023-02-28T13:38:52;95656.06;;;13.28;70.87
55466;BME280;41329;41.594;23.810;2023-02-28T13:44:06;95627.81;;;13.22;70.23
55466;BME280;41329;41.594;23.810;2023-02-28T13:46:34;95663.88;;;13.52;70.18
55466;BME280;41329;41.594;23.810;2023-02-28T13:57:42;95655.69;;;13.69;70.32
55466;BME280;41329;41.594;23.810;2023-02-28T14:05:38;95632.88;;;13.50;70.67
55466;BME280;41329;41.594;23.810;2023-02-28T14:08:08;95642.47;;;13.56;70.71
55466;BME280;41329;41.594;23.810;2023-02-28T14:10:44;95631.91;;;13.32;72.02
55466;BME280;41329;41.594;23.810;2023-02-28T14:13:39;95646.16;;;13.27;73.26
55466;BME280;41329;41.594;23.810;2023-02-28T14:16:11;95638.19;;;13.25;72.78
55466;BME280;41329;41.594;23.810;2023-02-28T14:18:42;95647.03;;;13.38;72.80
55466;BME280;41329;41.594;23.810;2023-02-28T14:21:21;95655.16;;;13.17;73.27
55466;BME280;41329;41.594;23.810;2023-02-28T14:27:30;95668.50;;;13.04;73.68
55466;BME280;41329;41.594;23.810;2023-02-28T14:33:13;95628.25;;;12.91;73.52
55466;BME280;41329;41.594;23.810;2023-02-28T14:35:55;95677.94;;;13.29;72.98
55466;BME280;41329;41.594;23.810;2023-02-28T14:38:55;95673.63;;;13.35;72.80
55466;BME280;41329;41.594;23.810;2023-02-28T14:43:58;95661.72;;;13.35;72.86
55466;BME280;41329;41.594;23.810;2023-02-28T14:46:35;95684.09;;;13.49;72.75
55466;BME280;41329;41.594;23.810;2023-02-28T14:49:04;95675.00;;;13.52;72.62
55466;BME280;41329;41.594;23.810;2023-02-28T14:51:29;95684.13;;;13.52;72.26
55466;BME280;41329;41.594;23.810;2023-02-28T14:54:00;95688.13;;;13.55;72.43
55466;BME280;41329;41.594;23.810;2023-02-28T14:56:34;95686.13;;;13.55;72.48
55466;BME280;41329;41.594;23.810;2023-02-28T14:59:00;95683.75;;;13.54;72.21
55466;BME280;41329;41.594;23.810;2023-02-28T15:01:26;95683.34;;;13.52;72.43
55466;BME280;41329;41.594;23.810;2023-02-28T15:04:00;95674.94;;;13.48;72.57
55466;BME280;41329;41.594;23.810;2023-02-28T15:06:26;95637.34;;;13.21;72.37
55466;BME280;41329;41.594;23.810;2023-02-28T15:09:21;95685.66;;;13.46;72.38